sensor_id;sensor_type;location;lat;lon;timestamp;P1;durP1;ratioP1;P2;durP2;ratioP2
35150;SDS011;55720;51.972;4.624;2023-03-14T00:01:38;13.43;;;2.15;;
35150;SDS011;55720;51.972;4.624;2023-03-14T00:04:04;15.77;;;2.95;;
35150;SDS011;55720;51.972;4.624;2023-03-14T00:06:30;13.23;;;2.35;;
35150;SDS011;55720;51.972;4.624;2023-03-14T00:08:56;15.05;;;2.10;;
35150;SDS011;55720;51.972;4.624;2023-03-14T00:11:22;14.93;;;1.90;;
35150;SDS011;55720;51.972;4.624;2023-03-14T00:13:50;18.05;;;2.47;;
35150;SDS011;55720;51.972;4.624;2023-03-14T00:16:16;13.65;;;2.03;;
35150;SDS011;55720;51.972;4.624;2023-03-14T00:18:43;11.30;;;1.92;;
35150;SDS011;55720;51.972;4.624;2023-03-14T00:21:09;8.60;;;1.48;;
35150;SDS011;55720;51.972;4.624;2023-03-14T00:23:35;12.52;;;2.00;;
35150;SDS011;55720;51.972;4.624;2023-03-14T00:26:03;8.90;;;1.20;;
35150;SDS011;55720;51.972;4.624;2023-03-14T00:28:39;13.38;;;1.85;;
35150;SDS011;55720;51.972;4.624;2023-03-14T00:31:06;8.70;;;1.88;;
35150;SDS011;55720;51.972;4.624;2023-03-14T00:33:33;9.43;;;2.35;;
35150;SDS011;55720;51.972;4.624;2023-03-14T00:36:00;8.82;;;2.03;;
35150;SDS011;55720;51.972;4.624;2023-03-14T00:38:31;7.50;;;1.70;;
35150;SDS011;55720;51.972;4.624;2023-03-14T00:40:57;13.18;;;2.00;;
35150;SDS011;55720;51.972;4.624;2023-03-14T00:43:23;15.10;;;2.22;;
35150;SDS011;55720;51.972;4.624;2023-03-14T00:45:52;13.82;;;2.42;;
35150;SDS011;55720;51.972;4.624;2023-03-14T00:48:18;13.02;;;2.05;;
35150;SDS011;55720;51.972;4.624;2023-03-14T00:50:44;8.63;;;1.73;;
35150;SDS011;55720;51.972;4.624;2023-03-14T00:53:10;11.48;;;1.95;;
35150;SDS011;55720;51.972;4.624;2023-03-14T00:55:36;9.23;;;2.42;;
35150;SDS011;55720;51.972;4.624;2023-03-14T00:58:02;13.68;;;2.08;;
35150;SDS011;55720;51.972;4.624;2023-03-14T01:00:28;13.38;;;1.80;;
35150;SDS011;55720;51.972;4.624;2023-03-14T01:02:53;10.68;;;2.15;;
35150;SDS011;55720;51.972;4.624;2023-03-14T01:05:18;14.32;;;2.20;;
35150;SDS011;55720;51.972;4.624;2023-03-14T01:07:44;9.52;;;1.63;;
35150;SDS011;55720;51.972;4.624;2023-03-14T01:10:09;12.63;;;1.77;;
35150;SDS011;55720;51.972;4.624;2023-03-14T01:12:35;13.85;;;1.75;;
35150;SDS011;55720;51.972;4.624;2023-03-14T01:15:01;9.57;;;1.48;;
35150;SDS011;55720;51.972;4.624;2023-03-14T01:17:26;11.25;;;1.50;;
35150;SDS011;55720;51.972;4.624;2023-03-14T01:19:51;15.30;;;1.85;;
35150;SDS011;55720;51.972;4.624;2023-03-14T01:22:17;15.98;;;1.75;;
35150;SDS011;55720;51.972;4.624;2023-03-14T01:24:42;10.18;;;1.50;;
35150;SDS011;55720;51.972;4.624;2023-03-14T01:27:08;16.00;;;1.70;;
35150;SDS011;55720;51.972;4.624;2023-03-14T01:29:33;9.18;;;1.40;;
35150;SDS011;55720;51.972;4.624;2023-03-14T01:31:58;11.05;;;1.55;;
35150;SDS011;55720;51.972;4.624;2023-03-14T01:34:24;11.55;;;1.60;;
35150;SDS011;55720;51.972;4.624;2023-03-14T01:36:49;10.23;;;1.77;;
35150;SDS011;55720;51.972;4.624;2023-03-14T01:39:15;11.38;;;1.30;;
35150;SDS011;55720;51.972;4.624;2023-03-14T01:41:40;13.13;;;2.58;;
35150;SDS011;55720;51.972;4.624;2023-03-14T01:44:09;12.60;;;1.30;;
35150;SDS011;55720;51.972;4.624;2023-03-14T01:46:40;9.02;;;1.35;;
35150;SDS011;55720;51.972;4.624;2023-03-14T01:51:45;13.07;;;1.60;;
35150;SDS011;55720;51.972;4.624;2023-03-14T01:54:14;5.30;;;1.10;;
35150;SDS011;55720;51.972;4.624;2023-03-14T01:56:45;6.03;;;1.20;;
35150;SDS011;55720;51.972;4.624;2023-03-14T01:59:15;12.52;;;1.58;;
35150;SDS011;55720;51.972;4.624;2023-03-14T02:01:41;12.50;;;1.42;;
35150;SDS011;55720;51.972;4.624;2023-03-14T02:04:08;10.98;;;1.45;;
35150;SDS011;55720;51.972;4.624;2023-03-14T02:06:37;11.20;;;2.00;;
35150;SDS011;55720;51.972;4.624;2023-03-14T02:09:09;9.60;;;1.55;;
35150;SDS011;55720;51.972;4.624;2023-03-14T02:11:35;11.23;;;1.83;;
35150;SDS011;55720;51.972;4.624;2023-03-14T02:14:02;8.48;;;1.30;;
35150;SDS011;55720;51.972;4.624;2023-03-14T02:16:29;7.78;;;1.58;;
35150;SDS011;55720;51.972;4.624;2023-03-14T02:18:55;13.43;;;1.98;;
35150;SDS011;55720;51.972;4.624;2023-03-14T02:21:27;6.22;;;1.02;;
35150;SDS011;55720;51.972;4.624;2023-03-14T02:24:30;9.18;;;1.20;;
35150;SDS011;55720;51.972;4.624;2023-03-14T02:27:08;5.40;;;0.93;;
35150;SDS011;55720;51.972;4.624;2023-03-14T02:29:36;5.88;;;1.58;;
35150;SDS011;55720;51.972;4.624;2023-03-14T02:32:06;5.22;;;1.25;;
35150;SDS011;55720;51.972;4.624;2023-03-14T02:34:31;12.32;;;1.73;;
35150;SDS011;55720;51.972;4.624;2023-03-14T02:36:58;9.32;;;1.48;;
35150;SDS011;55720;51.972;4.624;2023-03-14T02:39:27;6.55;;;1.45;;
35150;SDS011;55720;51.972;4.624;2023-03-14T02:42:00;6.85;;;1.58;;
35150;SDS011;55720;51.972;4.624;2023-03-14T02:44:25;8.65;;;1.27;;
35150;SDS011;55720;51.972;4.624;2023-03-14T02:46:51;6.07;;;1.10;;
35150;SDS011;55720;51.972;4.624;2023-03-14T02:49:16;10.23;;;1.38;;
35150;SDS011;55720;51.972;4.624;2023-03-14T02:52:01;10.57;;;1.27;;
35150;SDS011;55720;51.972;4.624;2023-03-14T02:54:27;10.90;;;1.58;;
35150;SDS011;55720;51.972;4.624;2023-03-14T02:56:52;6.88;;;1.30;;
35150;SDS011;55720;51.972;4.624;2023-03-14T02:59:18;7.22;;;1.35;;
35150;SDS011;55720;51.972;4.624;2023-03-14T03:01:43;8.07;;;1.52;;
35150;SDS011;55720;51.972;4.624;2023-03-14T03:04:09;10.80;;;1.95;;
35150;SDS011;55720;51.972;4.624;2023-03-14T03:06:34;8.23;;;1.42;;
35150;SDS011;55720;51.972;4.624;2023-03-14T03:09:00;10.60;;;1.85;;
35150;SDS011;55720;51.972;4.624;2023-03-14T03:11:25;12.38;;;2.30;;
35150;SDS011;55720;51.972;4.624;2023-03-14T03:13:51;10.82;;;1.90;;
35150;SDS011;55720;51.972;4.624;2023-03-14T03:16:16;9.63;;;1.65;;
35150;SDS011;55720;51.972;4.624;2023-03-14T03:18:41;13.05;;;1.75;;
35150;SDS011;55720;51.972;4.624;2023-03-14T03:21:07;8.15;;;1.80;;
35150;SDS011;55720;51.972;4.624;2023-03-14T03:23:34;12.45;;;1.80;;
35150;SDS011;55720;51.972;4.624;2023-03-14T03:26:00;14.43;;;2.17;;
35150;SDS011;55720;51.972;4.624;2023-03-14T03:28:25;9.00;;;1.75;;
35150;SDS011;55720;51.972;4.624;2023-03-14T03:30:51;10.02;;;1.88;;
35150;SDS011;55720;51.972;4.624;2023-03-14T03:33:16;13.13;;;1.60;;
35150;SDS011;55720;51.972;4.624;2023-03-14T03:35:44;9.93;;;1.60;;
35150;SDS011;55720;51.972;4.624;2023-03-14T03:38:11;15.87;;;1.60;;
35150;SDS011;55720;51.972;4.624;2023-03-14T03:40:37;6.55;;;1.40;;
35150;SDS011;55720;51.972;4.624;2023-03-14T03:43:02;11.40;;;1.55;;
35150;SDS011;55720;51.972;4.624;2023-03-14T03:45:29;9.20;;;1.75;;
35150;SDS011;55720;51.972;4.624;2023-03-14T03:47:54;6.88;;;1.70;;
35150;SDS011;55720;51.972;4.624;2023-03-14T03:50:20;7.93;;;1.63;;
35150;SDS011;55720;51.972;4.624;2023-03-14T03:52:45;10.30;;;1.60;;
35150;SDS011;55720;51.972;4.624;2023-03-14T03:55:10;10.60;;;1.60;;
35150;SDS011;55720;51.972;4.624;2023-03-14T03:57:36;9.30;;;1.75;;
35150;SDS011;55720;51.972;4.624;2023-03-14T04:00:02;9.93;;;1.70;;
35150;SDS011;55720;51.972;4.624;2023-03-14T04:02:29;9.93;;;1.63;;
35150;SDS011;55720;51.972;4.624;2023-03-14T04:04:55;11.07;;;1.90;;
35150;SDS011;55720;51.972;4.624;2023-03-14T04:07:20;9.18;;;1.52;;
35150;SDS011;55720;51.972;4.624;2023-03-14T04:09:45;8.02;;;1.20;;
35150;SDS011;55720;51.972;4.624;2023-03-14T04:12:11;9.35;;;1.73;;
35150;SDS011;55720;51.972;4.624;2023-03-14T04:14:37;7.88;;;1.27;;
35150;SDS011;55720;51.972;4.624;2023-03-14T04:17:03;7.07;;;1.70;;
35150;SDS011;55720;51.972;4.624;2023-03-14T04:19:28;14.07;;;2.20;;
35150;SDS011;55720;51.972;4.624;2023-03-14T04:21:53;10.57;;;1.65;;
35150;SDS011;55720;51.972;4.624;2023-03-14T04:24:19;12.98;;;1.52;;
35150;SDS011;55720;51.972;4.624;2023-03-14T04:26:44;6.65;;;1.17;;
35150;SDS011;55720;51.972;4.624;2023-03-14T04:29:09;9.35;;;1.58;;
35150;SDS011;55720;51.972;4.624;2023-03-14T04:31:35;10.63;;;1.40;;
35150;SDS011;55720;51.972;4.624;2023-03-14T04:34:00;5.57;;;1.05;;
35150;SDS011;55720;51.972;4.624;2023-03-14T04:36:26;8.77;;;1.45;;
35150;SDS011;55720;51.972;4.624;2023-03-14T04:38:51;9.95;;;1.88;;
35150;SDS011;55720;51.972;4.624;2023-03-14T04:41:16;5.35;;;1.20;;
35150;SDS011;55720;51.972;4.624;2023-03-14T04:43:42;14.43;;;1.63;;
35150;SDS011;55720;51.972;4.624;2023-03-14T04:46:07;9.77;;;1.38;;
35150;SDS011;55720;51.972;4.624;2023-03-14T04:48:33;10.25;;;1.63;;
35150;SDS011;55720;51.972;4.624;2023-03-14T04:50:58;8.90;;;1.58;;
35150;SDS011;55720;51.972;4.624;2023-03-14T04:53:23;7.57;;;1.40;;
35150;SDS011;55720;51.972;4.624;2023-03-14T04:55:53;7.70;;;1.48;;
35150;SDS011;55720;51.972;4.624;2023-03-14T04:58:20;6.18;;;1.38;;
35150;SDS011;55720;51.972;4.624;2023-03-14T05:00:47;5.22;;;1.83;;
35150;SDS011;55720;51.972;4.624;2023-03-14T05:03:16;8.85;;;1.80;;
35150;SDS011;55720;51.972;4.624;2023-03-14T05:05:43;5.50;;;1.80;;
35150;SDS011;55720;51.972;4.624;2023-03-14T05:08:08;10.95;;;1.48;;
35150;SDS011;55720;51.972;4.624;2023-03-14T05:10:34;9.90;;;2.05;;
35150;SDS011;55720;51.972;4.624;2023-03-14T05:13:00;6.40;;;1.60;;
35150;SDS011;55720;51.972;4.624;2023-03-14T05:15:25;5.35;;;1.65;;
35150;SDS011;55720;51.972;4.624;2023-03-14T05:17:51;5.80;;;1.80;;
35150;SDS011;55720;51.972;4.624;2023-03-14T05:20:16;5.53;;;1.73;;
35150;SDS011;55720;51.972;4.624;2023-03-14T05:22:42;8.45;;;1.65;;
35150;SDS011;55720;51.972;4.624;2023-03-14T05:25:08;9.23;;;2.00;;
35150;SDS011;55720;51.972;4.624;2023-03-14T05:27:34;7.55;;;2.40;;
35150;SDS011;55720;51.972;4.624;2023-03-14T05:30:00;4.32;;;2.25;;
35150;SDS011;55720;51.972;4.624;2023-03-14T05:32:26;7.47;;;2.25;;
35150;SDS011;55720;51.972;4.624;2023-03-14T05:34:52;5.80;;;2.50;;
35150;SDS011;55720;51.972;4.624;2023-03-14T05:37:17;8.48;;;2.67;;
35150;SDS011;55720;51.972;4.624;2023-03-14T05:39:43;8.45;;;2.80;;
35150;SDS011;55720;51.972;4.624;2023-03-14T05:42:08;8.82;;;2.80;;
35150;SDS011;55720;51.972;4.624;2023-03-14T05:44:33;8.15;;;2.25;;
35150;SDS011;55720;51.972;4.624;2023-03-14T05:46:59;7.90;;;2.70;;
35150;SDS011;55720;51.972;4.624;2023-03-14T05:49:24;6.20;;;1.70;;
35150;SDS011;55720;51.972;4.624;2023-03-14T05:51:50;7.18;;;1.00;;
35150;SDS011;55720;51.972;4.624;2023-03-14T05:54:16;3.90;;;0.70;;
35150;SDS011;55720;51.972;4.624;2023-03-14T05:56:41;2.15;;;0.63;;
35150;SDS011;55720;51.972;4.624;2023-03-14T05:59:06;5.45;;;0.60;;
35150;SDS011;55720;51.972;4.624;2023-03-14T06:01:33;6.65;;;0.80;;
35150;SDS011;55720;51.972;4.624;2023-03-14T06:03:59;4.65;;;0.43;;
35150;SDS011;55720;51.972;4.624;2023-03-14T06:06:25;5.25;;;1.08;;
35150;SDS011;55720;51.972;4.624;2023-03-14T06:08:50;2.58;;;0.52;;
35150;SDS011;55720;51.972;4.624;2023-03-14T06:11:15;5.03;;;0.40;;
35150;SDS011;55720;51.972;4.624;2023-03-14T06:13:41;4.63;;;0.65;;
35150;SDS011;55720;51.972;4.624;2023-03-14T06:16:06;4.95;;;0.80;;
35150;SDS011;55720;51.972;4.624;2023-03-14T06:18:32;5.00;;;0.38;;
35150;SDS011;55720;51.972;4.624;2023-03-14T06:20:57;3.20;;;0.63;;
35150;SDS011;55720;51.972;4.624;2023-03-14T06:23:23;3.28;;;0.65;;
35150;SDS011;55720;51.972;4.624;2023-03-14T06:25:49;5.25;;;1.00;;
35150;SDS011;55720;51.972;4.624;2023-03-14T06:28:14;7.43;;;2.05;;
35150;SDS011;55720;51.972;4.624;2023-03-14T06:30:40;5.25;;;0.98;;
35150;SDS011;55720;51.972;4.624;2023-03-14T06:33:05;5.07;;;0.70;;
35150;SDS011;55720;51.972;4.624;2023-03-14T06:35:31;4.68;;;0.70;;
35150;SDS011;55720;51.972;4.624;2023-03-14T06:37:56;6.45;;;0.80;;
35150;SDS011;55720;51.972;4.624;2023-03-14T06:40:22;3.30;;;0.70;;
35150;SDS011;55720;51.972;4.624;2023-03-14T06:42:47;3.70;;;0.75;;
35150;SDS011;55720;51.972;4.624;2023-03-14T06:45:13;4.13;;;1.00;;
35150;SDS011;55720;51.972;4.624;2023-03-14T06:47:39;3.75;;;0.60;;
35150;SDS011;55720;51.972;4.624;2023-03-14T06:50:05;4.43;;;0.60;;
35150;SDS011;55720;51.972;4.624;2023-03-14T06:52:31;6.55;;;0.55;;
35150;SDS011;55720;51.972;4.624;2023-03-14T06:54:56;5.22;;;0.90;;
35150;SDS011;55720;51.972;4.624;2023-03-14T06:57:21;2.80;;;0.70;;
35150;SDS011;55720;51.972;4.624;2023-03-14T06:59:47;4.95;;;0.88;;
35150;SDS011;55720;51.972;4.624;2023-03-14T07:02:13;5.25;;;0.70;;
35150;SDS011;55720;51.972;4.624;2023-03-14T07:04:38;3.97;;;0.98;;
35150;SDS011;55720;51.972;4.624;2023-03-14T07:07:04;8.30;;;0.98;;
35150;SDS011;55720;51.972;4.624;2023-03-14T07:09:30;3.88;;;0.70;;
35150;SDS011;55720;51.972;4.624;2023-03-14T07:11:56;7.03;;;0.65;;
35150;SDS011;55720;51.972;4.624;2023-03-14T07:14:21;3.15;;;0.70;;
35150;SDS011;55720;51.972;4.624;2023-03-14T07:16:46;6.95;;;1.08;;
35150;SDS011;55720;51.972;4.624;2023-03-14T07:19:12;3.75;;;0.85;;
35150;SDS011;55720;51.972;4.624;2023-03-14T07:21:37;8.40;;;1.15;;
35150;SDS011;55720;51.972;4.624;2023-03-14T07:24:03;8.60;;;0.65;;
35150;SDS011;55720;51.972;4.624;2023-03-14T07:26:30;13.48;;;1.33;;
35150;SDS011;55720;51.972;4.624;2023-03-14T07:28:55;9.73;;;1.05;;
35150;SDS011;55720;51.972;4.624;2023-03-14T07:31:21;6.38;;;0.80;;
35150;SDS011;55720;51.972;4.624;2023-03-14T07:33:46;10.07;;;0.90;;
35150;SDS011;55720;51.972;4.624;2023-03-14T07:36:12;4.43;;;0.82;;
35150;SDS011;55720;51.972;4.624;2023-03-14T07:38:37;7.78;;;0.90;;
35150;SDS011;55720;51.972;4.624;2023-03-14T07:41:04;5.32;;;0.80;;
35150;SDS011;55720;51.972;4.624;2023-03-14T07:43:31;8.65;;;0.90;;
35150;SDS011;55720;51.972;4.624;2023-03-14T07:45:56;3.92;;;0.63;;
35150;SDS011;55720;51.972;4.624;2023-03-14T07:48:21;6.20;;;0.80;;
35150;SDS011;55720;51.972;4.624;2023-03-14T07:50:49;2.50;;;0.63;;
35150;SDS011;55720;51.972;4.624;2023-03-14T07:53:15;3.55;;;0.70;;
35150;SDS011;55720;51.972;4.624;2023-03-14T07:55:41;3.63;;;0.70;;
35150;SDS011;55720;51.972;4.624;2023-03-14T07:58:06;3.25;;;0.73;;
35150;SDS011;55720;51.972;4.624;2023-03-14T08:00:31;8.10;;;0.68;;
35150;SDS011;55720;51.972;4.624;2023-03-14T08:02:57;7.00;;;0.98;;
35150;SDS011;55720;51.972;4.624;2023-03-14T08:05:23;8.07;;;0.90;;
35150;SDS011;55720;51.972;4.624;2023-03-14T08:07:48;12.02;;;1.02;;
35150;SDS011;55720;51.972;4.624;2023-03-14T08:10:14;3.65;;;0.55;;
35150;SDS011;55720;51.972;4.624;2023-03-14T08:12:46;5.80;;;0.80;;
35150;SDS011;55720;51.972;4.624;2023-03-14T08:15:11;7.30;;;0.90;;
35150;SDS011;55720;51.972;4.624;2023-03-14T08:17:37;10.13;;;1.33;;
35150;SDS011;55720;51.972;4.624;2023-03-14T08:20:02;7.40;;;0.70;;
35150;SDS011;55720;51.972;4.624;2023-03-14T08:22:31;4.25;;;1.13;;
35150;SDS011;55720;51.972;4.624;2023-03-14T08:24:57;6.95;;;1.05;;
35150;SDS011;55720;51.972;4.624;2023-03-14T08:27:22;6.47;;;1.10;;
35150;SDS011;55720;51.972;4.624;2023-03-14T08:29:47;3.63;;;0.60;;
35150;SDS011;55720;51.972;4.624;2023-03-14T08:32:13;3.13;;;0.55;;
35150;SDS011;55720;51.972;4.624;2023-03-14T08:34:38;3.10;;;0.73;;
35150;SDS011;55720;51.972;4.624;2023-03-14T08:37:05;2.00;;;0.60;;
35150;SDS011;55720;51.972;4.624;2023-03-14T08:39:30;4.28;;;0.50;;
35150;SDS011;55720;51.972;4.624;2023-03-14T08:41:56;4.32;;;0.30;;
35150;SDS011;55720;51.972;4.624;2023-03-14T08:44:21;6.72;;;0.65;;
35150;SDS011;55720;51.972;4.624;2023-03-14T08:46:47;4.25;;;0.43;;
35150;SDS011;55720;51.972;4.624;2023-03-14T08:49:12;3.72;;;0.40;;
35150;SDS011;55720;51.972;4.624;2023-03-14T08:51:39;3.60;;;0.60;;
35150;SDS011;55720;51.972;4.624;2023-03-14T08:54:04;3.90;;;0.50;;
35150;SDS011;55720;51.972;4.624;2023-03-14T08:56:30;1.67;;;0.50;;
35150;SDS011;55720;51.972;4.624;2023-03-14T08:58:56;4.55;;;0.60;;
35150;SDS011;55720;51.972;4.624;2023-03-14T09:01:22;3.33;;;0.68;;
35150;SDS011;55720;51.972;4.624;2023-03-14T09:03:50;5.13;;;0.90;;
35150;SDS011;55720;51.972;4.624;2023-03-14T09:06:15;3.78;;;0.60;;
35150;SDS011;55720;51.972;4.624;2023-03-14T09:08:42;9.27;;;3.05;;
35150;SDS011;55720;51.972;4.624;2023-03-14T09:11:08;14.75;;;1.10;;
35150;SDS011;55720;51.972;4.624;2023-03-14T09:13:34;8.32;;;1.20;;
35150;SDS011;55720;51.972;4.624;2023-03-14T09:15:59;6.32;;;1.02;;
35150;SDS011;55720;51.972;4.624;2023-03-14T09:18:24;9.60;;;1.00;;
35150;SDS011;55720;51.972;4.624;2023-03-14T09:20:50;13.70;;;1.25;;
35150;SDS011;55720;51.972;4.624;2023-03-14T09:23:15;6.95;;;1.17;;
35150;SDS011;55720;51.972;4.624;2023-03-14T09:25:40;9.80;;;1.67;;
35150;SDS011;55720;51.972;4.624;2023-03-14T09:28:06;12.18;;;1.98;;
35150;SDS011;55720;51.972;4.624;2023-03-14T09:30:32;12.68;;;1.23;;
35150;SDS011;55720;51.972;4.624;2023-03-14T09:32:57;11.30;;;1.60;;
35150;SDS011;55720;51.972;4.624;2023-03-14T09:35:25;12.38;;;1.30;;
35150;SDS011;55720;51.972;4.624;2023-03-14T09:37:51;13.30;;;1.58;;
35150;SDS011;55720;51.972;4.624;2023-03-14T09:40:17;18.83;;;1.92;;
35150;SDS011;55720;51.972;4.624;2023-03-14T09:42:45;16.17;;;1.83;;
35150;SDS011;55720;51.972;4.624;2023-03-14T09:45:27;18.17;;;1.70;;
35150;SDS011;55720;51.972;4.624;2023-03-14T09:47:56;14.93;;;1.45;;
35150;SDS011;55720;51.972;4.624;2023-03-14T09:50:23;15.43;;;1.65;;
35150;SDS011;55720;51.972;4.624;2023-03-14T09:52:50;13.60;;;1.77;;
35150;SDS011;55720;51.972;4.624;2023-03-14T09:55:21;15.85;;;1.83;;
35150;SDS011;55720;51.972;4.624;2023-03-14T09:57:54;21.58;;;1.70;;
35150;SDS011;55720;51.972;4.624;2023-03-14T10:00:24;20.83;;;2.13;;
35150;SDS011;55720;51.972;4.624;2023-03-14T10:02:53;21.45;;;2.13;;
35150;SDS011;55720;51.972;4.624;2023-03-14T10:05:22;22.05;;;1.83;;
35150;SDS011;55720;51.972;4.624;2023-03-14T10:07:49;23.63;;;2.47;;
35150;SDS011;55720;51.972;4.624;2023-03-14T10:10:25;12.15;;;1.50;;
35150;SDS011;55720;51.972;4.624;2023-03-14T10:12:58;20.30;;;2.28;;
35150;SDS011;55720;51.972;4.624;2023-03-14T10:15:31;19.50;;;2.15;;
35150;SDS011;55720;51.972;4.624;2023-03-14T10:17:59;17.63;;;2.03;;
35150;SDS011;55720;51.972;4.624;2023-03-14T10:25:27;26.33;;;2.33;;
35150;SDS011;55720;51.972;4.624;2023-03-14T10:27:54;22.35;;;2.33;;
35150;SDS011;55720;51.972;4.624;2023-03-14T10:30:30;18.05;;;1.95;;
35150;SDS011;55720;51.972;4.624;2023-03-14T10:33:09;19.02;;;2.22;;
35150;SDS011;55720;51.972;4.624;2023-03-14T10:35:36;15.18;;;2.38;;
35150;SDS011;55720;51.972;4.624;2023-03-14T10:38:03;18.13;;;2.72;;
35150;SDS011;55720;51.972;4.624;2023-03-14T10:40:38;26.67;;;2.63;;
35150;SDS011;55720;51.972;4.624;2023-03-14T10:43:06;14.60;;;2.47;;
35150;SDS011;55720;51.972;4.624;2023-03-14T10:45:41;18.25;;;2.13;;
35150;SDS011;55720;51.972;4.624;2023-03-14T10:48:24;21.75;;;2.22;;
35150;SDS011;55720;51.972;4.624;2023-03-14T10:53:28;18.85;;;1.92;;
35150;SDS011;55720;51.972;4.624;2023-03-14T10:55:59;13.05;;;2.00;;
35150;SDS011;55720;51.972;4.624;2023-03-14T10:58:28;14.25;;;2.20;;
35150;SDS011;55720;51.972;4.624;2023-03-14T11:03:54;23.40;;;2.30;;
35150;SDS011;55720;51.972;4.624;2023-03-14T11:06:30;15.20;;;2.15;;
35150;SDS011;55720;51.972;4.624;2023-03-14T11:11:40;14.82;;;2.50;;
35150;SDS011;55720;51.972;4.624;2023-03-14T11:14:18;21.92;;;1.77;;
35150;SDS011;55720;51.972;4.624;2023-03-14T11:22:36;17.50;;;1.70;;
35150;SDS011;55720;51.972;4.624;2023-03-14T11:25:16;14.73;;;1.83;;
35150;SDS011;55720;51.972;4.624;2023-03-14T11:27:49;12.95;;;1.40;;
35150;SDS011;55720;51.972;4.624;2023-03-14T11:30:30;11.40;;;1.58;;
35150;SDS011;55720;51.972;4.624;2023-03-14T11:33:01;12.25;;;1.63;;
35150;SDS011;55720;51.972;4.624;2023-03-14T11:35:38;12.15;;;1.60;;
35150;SDS011;55720;51.972;4.624;2023-03-14T11:38:19;12.98;;;1.63;;
35150;SDS011;55720;51.972;4.624;2023-03-14T11:40:54;15.70;;;2.10;;
35150;SDS011;55720;51.972;4.624;2023-03-14T11:43:39;8.88;;;1.73;;
35150;SDS011;55720;51.972;4.624;2023-03-14T11:46:18;11.38;;;1.95;;
35150;SDS011;55720;51.972;4.624;2023-03-14T11:49:01;15.00;;;1.60;;
35150;SDS011;55720;51.972;4.624;2023-03-14T11:51:35;11.73;;;1.48;;
35150;SDS011;55720;51.972;4.624;2023-03-14T11:56:51;8.57;;;1.00;;
35150;SDS011;55720;51.972;4.624;2023-03-14T12:02:27;12.50;;;1.50;;
35150;SDS011;55720;51.972;4.624;2023-03-14T12:10:46;14.23;;;1.27;;
35150;SDS011;55720;51.972;4.624;2023-03-14T12:13:16;9.63;;;1.52;;
35150;SDS011;55720;51.972;4.624;2023-03-14T12:16:01;9.27;;;1.67;;
35150;SDS011;55720;51.972;4.624;2023-03-14T12:18:34;8.20;;;1.48;;
35150;SDS011;55720;51.972;4.624;2023-03-14T12:21:04;10.68;;;1.20;;
35150;SDS011;55720;51.972;4.624;2023-03-14T12:23:51;5.55;;;1.05;;
35150;SDS011;55720;51.972;4.624;2023-03-14T12:26:22;11.27;;;1.20;;
35150;SDS011;55720;51.972;4.624;2023-03-14T12:34:02;13.35;;;1.10;;
35150;SDS011;55720;51.972;4.624;2023-03-14T12:49:42;15.32;;;1.20;;
35150;SDS011;55720;51.972;4.624;2023-03-14T13:00:20;7.78;;;0.85;;
35150;SDS011;55720;51.972;4.624;2023-03-14T13:02:48;9.73;;;1.20;;
35150;SDS011;55720;51.972;4.624;2023-03-14T13:05:18;9.25;;;1.42;;
35150;SDS011;55720;51.972;4.624;2023-03-14T13:10:21;8.07;;;0.90;;
35150;SDS011;55720;51.972;4.624;2023-03-14T13:17:53;7.00;;;1.23;;
35150;SDS011;55720;51.972;4.624;2023-03-14T13:20:24;6.28;;;1.38;;
35150;SDS011;55720;51.972;4.624;2023-03-14T13:22:51;6.88;;;0.85;;
35150;SDS011;55720;51.972;4.624;2023-03-14T13:25:17;8.98;;;1.15;;
35150;SDS011;55720;51.972;4.624;2023-03-14T13:27:45;5.85;;;1.00;;
35150;SDS011;55720;51.972;4.624;2023-03-14T13:30:15;6.13;;;0.90;;
35150;SDS011;55720;51.972;4.624;2023-03-14T13:32:44;7.38;;;1.75;;
35150;SDS011;55720;51.972;4.624;2023-03-14T13:35:19;6.15;;;0.90;;
35150;SDS011;55720;51.972;4.624;2023-03-14T13:38:13;8.73;;;1.00;;
35150;SDS011;55720;51.972;4.624;2023-03-14T13:40:43;10.35;;;1.15;;
35150;SDS011;55720;51.972;4.624;2023-03-14T13:45:43;11.32;;;1.05;;
35150;SDS011;55720;51.972;4.624;2023-03-14T13:48:14;8.13;;;0.93;;
35150;SDS011;55720;51.972;4.624;2023-03-14T13:50:44;10.75;;;1.10;;
35150;SDS011;55720;51.972;4.624;2023-03-14T13:55:36;7.65;;;1.05;;
35150;SDS011;55720;51.972;4.624;2023-03-14T13:58:02;6.82;;;0.90;;
35150;SDS011;55720;51.972;4.624;2023-03-14T14:00:27;9.77;;;1.27;;
35150;SDS011;55720;51.972;4.624;2023-03-14T14:02:54;9.70;;;1.25;;
35150;SDS011;55720;51.972;4.624;2023-03-14T14:05:21;4.68;;;1.05;;
35150;SDS011;55720;51.972;4.624;2023-03-14T14:07:50;4.70;;;0.98;;
35150;SDS011;55720;51.972;4.624;2023-03-14T14:10:16;8.20;;;1.05;;
35150;SDS011;55720;51.972;4.624;2023-03-14T14:12:43;11.43;;;1.20;;
35150;SDS011;55720;51.972;4.624;2023-03-14T14:15:22;6.95;;;1.08;;
35150;SDS011;55720;51.972;4.624;2023-03-14T14:17:57;6.82;;;1.10;;
35150;SDS011;55720;51.972;4.624;2023-03-14T14:20:28;9.52;;;1.10;;
35150;SDS011;55720;51.972;4.624;2023-03-14T14:23:03;6.35;;;0.90;;
35150;SDS011;55720;51.972;4.624;2023-03-14T14:25:30;5.47;;;0.88;;
35150;SDS011;55720;51.972;4.624;2023-03-14T14:27:57;5.45;;;1.20;;
35150;SDS011;55720;51.972;4.624;2023-03-14T14:30:32;4.30;;;1.10;;
35150;SDS011;55720;51.972;4.624;2023-03-14T14:33:18;9.63;;;1.13;;
35150;SDS011;55720;51.972;4.624;2023-03-14T14:35:53;13.70;;;1.42;;
35150;SDS011;55720;51.972;4.624;2023-03-14T14:38:21;3.42;;;0.85;;
35150;SDS011;55720;51.972;4.624;2023-03-14T14:40:51;9.20;;;1.20;;
35150;SDS011;55720;51.972;4.624;2023-03-14T14:43:21;9.77;;;1.30;;
35150;SDS011;55720;51.972;4.624;2023-03-14T14:45:50;8.45;;;1.13;;
35150;SDS011;55720;51.972;4.624;2023-03-14T14:48:19;4.07;;;0.60;;
35150;SDS011;55720;51.972;4.624;2023-03-14T14:50:56;8.80;;;1.13;;
35150;SDS011;55720;51.972;4.624;2023-03-14T14:56:14;14.57;;;1.27;;
35150;SDS011;55720;51.972;4.624;2023-03-14T14:58:41;16.30;;;1.38;;
35150;SDS011;55720;51.972;4.624;2023-03-14T15:01:11;5.63;;;1.92;;
35150;SDS011;55720;51.972;4.624;2023-03-14T15:03:41;7.07;;;1.02;;
35150;SDS011;55720;51.972;4.624;2023-03-14T15:06:08;9.30;;;0.88;;
35150;SDS011;55720;51.972;4.624;2023-03-14T15:08:37;6.20;;;0.88;;
35150;SDS011;55720;51.972;4.624;2023-03-14T15:11:02;5.15;;;0.80;;
35150;SDS011;55720;51.972;4.624;2023-03-14T15:13:27;7.55;;;0.93;;
35150;SDS011;55720;51.972;4.624;2023-03-14T15:15:53;6.43;;;0.82;;
35150;SDS011;55720;51.972;4.624;2023-03-14T15:18:22;5.45;;;1.00;;
35150;SDS011;55720;51.972;4.624;2023-03-14T15:20:49;7.05;;;0.93;;
35150;SDS011;55720;51.972;4.624;2023-03-14T15:23:15;2.92;;;0.70;;
35150;SDS011;55720;51.972;4.624;2023-03-14T15:25:42;6.20;;;1.02;;
35150;SDS011;55720;51.972;4.624;2023-03-14T15:28:17;7.25;;;0.85;;
35150;SDS011;55720;51.972;4.624;2023-03-14T15:30:47;8.88;;;1.20;;
35150;SDS011;55720;51.972;4.624;2023-03-14T15:33:14;9.40;;;0.85;;
35150;SDS011;55720;51.972;4.624;2023-03-14T15:35:39;6.80;;;0.77;;
35150;SDS011;55720;51.972;4.624;2023-03-14T15:38:09;6.05;;;0.90;;
35150;SDS011;55720;51.972;4.624;2023-03-14T15:40:35;2.28;;;0.70;;
35150;SDS011;55720;51.972;4.624;2023-03-14T15:43:01;10.32;;;0.98;;
35150;SDS011;55720;51.972;4.624;2023-03-14T15:45:27;6.28;;;0.75;;
35150;SDS011;55720;51.972;4.624;2023-03-14T15:47:52;4.70;;;0.80;;
35150;SDS011;55720;51.972;4.624;2023-03-14T15:50:18;5.22;;;0.90;;
35150;SDS011;55720;51.972;4.624;2023-03-14T15:52:44;9.30;;;1.17;;
35150;SDS011;55720;51.972;4.624;2023-03-14T15:55:09;11.13;;;1.20;;
35150;SDS011;55720;51.972;4.624;2023-03-14T15:57:35;4.72;;;1.35;;
35150;SDS011;55720;51.972;4.624;2023-03-14T16:00:01;11.52;;;1.35;;
35150;SDS011;55720;51.972;4.624;2023-03-14T16:02:29;5.25;;;0.90;;